ホニアラ の空港の天気 - METARとTAF

ホニアラ国際空港 ( AGGH / HIR ) - ソロモン諸島 ガダルカナル島ホニアラ
飛行場実況気象(Metar)
観測時間09/30 16:00 SBT (09/30 05:00 UTC)
風向・風速東 7m/s
視程10km以上
天気現象
少しの雲 雲底高度 610m
少しの雲 雲底高度 640m
気温32℃
湿度63%
気圧1004hPa
METARAGGH 300500Z 09014KT 9999 FEW020 FEW021CB 32/24 Q1004 RMK: CB ASSW SH TO SE,SSE,S,SSW
過去の天気等 Google飛行場航空写真 Wunderground天気予報

過去48時間のMETAR

飛行場予報(TAF)
発表時間: 9/30 16:10 SBT (9/30 05:10 UTC)
予報対象時間: 30日17時 SBT ~ 1日17時 SBT
風向・風速東 8m/s
視程10km以上
全天の4割程度の雲 雲底高度 520m
全天の8割程度の雲 雲底高度 3050m
TAF AGGH 300510Z 3006/0106 09015KT 9999 SCT017 BKN100
PROB40 INTER 3006/3010 5000 TSSH BKN016 FEW017CB T 31 28 26 24 Q 1005 1007 1008 1006